Tianjin — A8SJ2 — position and weather

sailwx.info

Track history (hours):
 
Tides and Currents Weather Stations Pressure Air Temp Water Temp Dewpoint Dewpoint Depression Visibility Wind Speed Wind Dir Waves Ship Positions

Tianjin

Last reported at 2017-Sep-12 10:53 UTC. Time now 2017-Sep-24 03:37 UTC.
Position N 24°18' E 119°10'.
Warning: this ship's position is 11 days out of date.

Length 349 m; draft 11.9 m.

Type: Ship (hazmat cat D). MMSI: 636014224.

Date/timePositionNaut miles runAvg speedWind from/ knotsBaromVisibWave heightAir tempDewpointWater temp
2017-Sep-12 10:53N 24°18' E 119°10'1716.2
2017-Sep-12 09:50N 24°07' E 118°56'616.2
2017-Sep-12 09:29N 24°03' E 118°52'1316.8
2017-Sep-12 08:44N 23°54' E 118°42'717.2
2017-Sep-12 08:22N 23°50' E 118°37'616.3
2017-Sep-12 08:00N 23°46' E 118°32'917.5
2017-Sep-12 07:28N 23°40' E 118°24'818.2
2017-Sep-12 07:00N 23°35' E 118°17'1018.7
2017-Sep-12 06:30N 23°28' E 118°09'8018.5
2017-Sep-12 02:09N 22°50' E 116°52'318.6
2017-Sep-12 02:00N 22°49' E 116°50'15316.1
2017-Sep-11 16:30N 22°19' E 114°07'1 0.6
2017-Sep-11 14:54N 22°20' E 114°08'0 0.0
2017-Sep-11 14:30N 22°20' E 114°08'0 0.0
2017-Sep-11 14:00N 22°20' E 114°08'0 0.0
2017-Sep-11 13:24N 22°20' E 114°08'0 0.0
2017-Sep-11 11:39N 22°20' E 114°08'0 0.0
2017-Sep-11 11:27N 22°20' E 114°08'0 0.0
2017-Sep-11 10:00N 22°20' E 114°08'0 0.0
2017-Sep-10 23:09N 22°20' E 114°08'0 0.0
2017-Sep-10 22:51N 22°20' E 114°08'0 0.0
2017-Sep-10 18:44N 22°20' E 114°08'1 2.0
2017-Sep-10 18:28N 22°19' E 114°07'10 9.6
2017-Sep-10 17:23N 22°21' E 113°56'410.5
2017-Sep-10 17:00N 22°24' E 113°53'3 5.0
2017-Sep-10 16:27N 22°27' E 113°53'1 2.1
2017-Sep-10 15:55N 22°28' E 113°53'0 0.0
2017-Sep-10 15:19N 22°28' E 113°53'0 0.0
2017-Sep-10 11:31N 22°28' E 113°53'0 0.0
2017-Sep-10 11:19N 22°28' E 113°53'0 0.0
2017-Sep-10 08:07N 22°28' E 113°53'0 0.0
2017-Sep-10 07:49N 22°28' E 113°53'0 0.0
2017-Sep-10 03:46N 22°28' E 113°53'0 0.0
2017-Sep-10 03:19N 22°28' E 113°53'0 0.0
2017-Sep-10 01:16N 22°28' E 113°53'0 0.0
2017-Sep-09 23:25N 22°28' E 113°53'0 0.0
2017-Sep-09 22:52N 22°28' E 113°53'0 0.0
2017-Sep-09 22:25N 22°28' E 113°53'0 0.0
2017-Sep-09 21:58N 22°28' E 113°53'0 0.0
2017-Sep-09 20:10N 22°28' E 113°53'0 0.0
2017-Sep-09 19:19N 22°28' E 113°53'0 0.0
2017-Sep-09 18:25N 22°28' E 113°53'0 0.0
2017-Sep-09 17:43N 22°28' E 113°53'0 0.0
2017-Sep-09 16:37N 22°28' E 113°53'0 0.1
2017-Sep-09 16:30N 22°28' E 113°53'0 0.7
2017-Sep-09 15:59N 22°28' E 113°52'3 6.1
2017-Sep-09 15:28N 22°25' E 113°53'23514.5
2017-Sep-08 23:11N 23°39' E 117°56'416.7
2017-Sep-08 22:57N 23°43' E 117°58'2117.6
2017-Sep-08 21:46N 23°57' E 118°15'517.2
2017-Sep-08 21:30N 24°01' E 118°17'916.9
2017-Sep-08 21:00N 24°09' E 118°18'510.6
2017-Sep-08 20:30N 24°14' E 118°17'612.2
2017-Sep-08 20:00N 24°19' E 118°12'612.3
2017-Sep-08 19:31N 24°23' E 118°07'612.0
2017-Sep-08 19:00N 24°26' E 118°02'1 1.5
2017-Sep-08 18:30N 24°27' E 118°01'0 0.0
2017-Sep-08 17:58N 24°27' E 118°01'0 0.0
2017-Sep-08 17:28N 24°27' E 118°01'0 0.0
2017-Sep-08 16:58N 24°27' E 118°01'0 0.0
2017-Sep-08 16:28N 24°27' E 118°01'0 0.0
2017-Sep-08 15:58N 24°27' E 118°01'0 0.0
2017-Sep-08 15:28N 24°27' E 118°01'0 0.0
2017-Sep-08 14:58N 24°27' E 118°01'0 0.0
2017-Sep-08 14:28N 24°27' E 118°01'0 0.0
2017-Sep-08 13:58N 24°27' E 118°01'0 0.0
2017-Sep-08 13:28N 24°27' E 118°01'0 0.0
2017-Sep-08 12:58N 24°27' E 118°01'0 0.0
2017-Sep-08 12:28N 24°27' E 118°01'0 0.0
2017-Sep-08 11:58N 24°27' E 118°01'0 0.0
2017-Sep-08 11:28N 24°27' E 118°01'0 0.0
2017-Sep-08 10:58N 24°27' E 118°01'0 0.0
2017-Sep-08 10:28N 24°27' E 118°01'0 0.0
2017-Sep-08 09:58N 24°27' E 118°01'0 0.0
2017-Sep-08 09:28N 24°27' E 118°01'0 0.0
2017-Sep-08 08:58N 24°27' E 118°01'0 0.0
2017-Sep-08 08:28N 24°27' E 118°01'0 0.0
2017-Sep-08 07:58N 24°27' E 118°01'0 0.0
2017-Sep-08 07:28N 24°27' E 118°01'0 0.0
2017-Sep-08 06:58N 24°27' E 118°01'0 0.0
2017-Sep-08 06:28N 24°27' E 118°01'0 0.0
2017-Sep-08 05:58N 24°27' E 118°01'0 0.0
2017-Sep-08 05:25N 24°27' E 118°01'0 0.1
2017-Sep-08 04:58N 24°27' E 118°01'0 0.1
2017-Sep-08 04:25N 24°27' E 118°01'0 0.0
2017-Sep-08 03:58N 24°27' E 118°01'0 0.0
2017-Sep-08 03:28N 24°27' E 118°01'0 0.0
2017-Sep-08 02:58N 24°27' E 118°01'0 0.0
2017-Sep-08 02:28N 24°27' E 118°01'0 0.0
2017-Sep-08 01:58N 24°27' E 118°01'0 0.0
2017-Sep-08 01:28N 24°27' E 118°01'0 0.0
2017-Sep-08 00:55N 24°27' E 118°01'0 0.0
2017-Sep-08 00:28N 24°27' E 118°01'0 0.1
2017-Sep-08 00:00N 24°27' E 118°01'1 2.6
2017-Sep-07 23:30N 24°26' E 118°02'611.7
2017-Sep-07 23:01N 24°23' E 118°08'4 8.1
2017-Sep-07 22:30N 24°20' E 118°11'5 9.2
2017-Sep-07 22:00N 24°16' E 118°14'510.0
2017-Sep-07 21:31N 24°13' E 118°18'612.2
2017-Sep-07 21:00N 24°12' E 118°24'815.3
2017-Sep-07 20:30N 24°14' E 118°32'815.4
2017-Sep-07 20:00N 24°16' E 118°41'815.6
2017-Sep-07 19:29N 24°18' E 118°49'2414.9
2017-Sep-07 17:53N 24°32' E 119°10'615.8
2017-Sep-07 17:30N 24°35' E 119°16'815.7
2017-Sep-07 17:00N 24°40' E 119°23'815.7
2017-Sep-07 16:30N 24°46' E 119°29'31315.2
2017-Sep-06 19:54N 29°09' E 122°39'2716.0
2017-Sep-06 18:13N 29°34' E 122°50'715.4
2017-Sep-06 17:45N 29°40' E 122°54'415.0
2017-Sep-06 17:30N 29°44' E 122°56'815.1
2017-Sep-06 16:59N 29°50' E 122°60'3013.7
2017-Sep-06 14:49N 30°20' E 122°58'514.7
2017-Sep-06 14:28N 30°23' E 122°53'714.2
2017-Sep-06 14:00N 30°27' E 122°47'2013.4
2017-Sep-06 12:30N 30°32' E 122°24'1210.9
2017-Sep-06 11:26N 30°34' E 122°11'710.4
2017-Sep-06 10:43N 30°38' E 122°03'0 0.0
2017-Sep-05 22:57N 30°38' E 122°03'0 0.0
2017-Sep-05 22:30N 30°38' E 122°03'0 0.0
2017-Sep-05 22:00N 30°38' E 122°03'0 0.0
2017-Sep-05 21:24N 30°38' E 122°03'0 0.0
2017-Sep-05 21:00N 30°38' E 122°03'0 0.0
2017-Sep-05 20:30N 30°38' E 122°03'0 0.0
2017-Sep-05 19:57N 30°38' E 122°03'0 0.0
2017-Sep-05 19:30N 30°38' E 122°03'0 0.0
2017-Sep-05 18:48N 30°38' E 122°03'0 0.0
2017-Sep-05 18:30N 30°38' E 122°03'0 0.0
2017-Sep-05 17:33N 30°38' E 122°03'0 0.0
2017-Sep-05 15:51N 30°38' E 122°03'0 0.0
2017-Sep-05 15:30N 30°38' E 122°03'0 0.0
2017-Sep-05 14:57N 30°38' E 122°03'0 0.0
2017-Sep-05 14:27N 30°38' E 122°03'0 0.0
2017-Sep-05 13:48N 30°38' E 122°03'0 0.0
2017-Sep-05 13:30N 30°38' E 122°03'0 0.0
2017-Sep-05 13:00N 30°38' E 122°03'0 0.0
2017-Sep-05 12:18N 30°38' E 122°03'0 0.0
2017-Sep-05 11:56N 30°38' E 122°03'0 0.0
2017-Sep-05 11:30N 30°38' E 122°03'1 1.1
2017-Sep-05 11:00N 30°37' E 122°03'0 0.2
2017-Sep-05 10:30N 30°37' E 122°03'2 4.3
2017-Sep-05 10:00N 30°36' E 122°05'711.2
2017-Sep-05 09:25N 30°34' E 122°12'5 9.0
2017-Sep-05 08:52N 30°33' E 122°17'3 7.1
2017-Sep-05 08:27N 30°33' E 122°21'511.4
2017-Sep-05 08:00N 30°33' E 122°27'611.6
2017-Sep-05 07:28N 30°34' E 122°34'910.5
2017-Sep-05 06:39N 30°35' E 122°44'211.0
2017-Sep-05 06:30N 30°35' E 122°45'711.3
2017-Sep-05 05:51N 30°35' E 122°54'411.3
2017-Sep-05 05:30N 30°36' E 122°58'711.3
2017-Sep-05 04:54N 30°37' E 123°06'411.3
2017-Sep-05 04:30N 30°38' E 123°11'611.3
2017-Sep-05 04:00N 30°39' E 123°18'611.3
2017-Sep-05 03:26N 30°42' E 123°24'611.2
2017-Sep-05 02:57N 30°45' E 123°29'511.5
2017-Sep-05 02:30N 30°48' E 123°34'611.2
2017-Sep-05 02:00N 30°51' E 123°40'611.1
2017-Sep-05 01:30N 30°54' E 123°45'611.0
2017-Sep-05 00:59N 30°58' E 123°50'1411.4
2017-Sep-04 23:46N 31°07' E 124°02'1212.0
2017-Sep-04 22:46N 31°14' E 124°14'311.8
2017-Sep-04 22:29N 31°16' E 124°17'  
Track history (hours):
 
Tides and Currents Weather Stations Pressure Air Temp Water Temp Dewpoint Dewpoint Depression Visibility Wind Speed Wind Dir Waves Ship Positions

Tianjin

Last reported at 2017-Sep-12 10:53 UTC. Time now 2017-Sep-24 03:37 UTC.
Position N 24°18' E 119°10'.
Warning: this ship's position is 11 days out of date.

Length 349 m; draft 11.9 m.

Type: Ship (hazmat cat D). MMSI: 636014224.

Date/timePositionNaut miles runAvg speedWind from/ knotsBaromVisibWave heightAir tempDewpointWater temp
2017-Sep-12 10:53N 24°18' E 119°10'1716.2
2017-Sep-12 09:50N 24°07' E 118°56'616.2
2017-Sep-12 09:29N 24°03' E 118°52'1316.8
2017-Sep-12 08:44N 23°54' E 118°42'717.2
2017-Sep-12 08:22N 23°50' E 118°37'616.3
2017-Sep-12 08:00N 23°46' E 118°32'917.5
2017-Sep-12 07:28N 23°40' E 118°24'818.2
2017-Sep-12 07:00N 23°35' E 118°17'1018.7
2017-Sep-12 06:30N 23°28' E 118°09'8018.5
2017-Sep-12 02:09N 22°50' E 116°52'318.6
2017-Sep-12 02:00N 22°49' E 116°50'15316.1
2017-Sep-11 16:30N 22°19' E 114°07'1 0.6
2017-Sep-11 14:54N 22°20' E 114°08'0 0.0
2017-Sep-11 14:30N 22°20' E 114°08'0 0.0
2017-Sep-11 14:00N 22°20' E 114°08'0 0.0
2017-Sep-11 13:24N 22°20' E 114°08'0 0.0
2017-Sep-11 11:39N 22°20' E 114°08'0 0.0
2017-Sep-11 11:27N 22°20' E 114°08'0 0.0
2017-Sep-11 10:00N 22°20' E 114°08'0 0.0
2017-Sep-10 23:09N 22°20' E 114°08'0 0.0
2017-Sep-10 22:51N 22°20' E 114°08'0 0.0
2017-Sep-10 18:44N 22°20' E 114°08'1 2.0
2017-Sep-10 18:28N 22°19' E 114°07'10 9.6
2017-Sep-10 17:23N 22°21' E 113°56'410.5
2017-Sep-10 17:00N 22°24' E 113°53'3 5.0
2017-Sep-10 16:27N 22°27' E 113°53'1 2.1
2017-Sep-10 15:55N 22°28' E 113°53'0 0.0
2017-Sep-10 15:19N 22°28' E 113°53'0 0.0
2017-Sep-10 11:31N 22°28' E 113°53'0 0.0
2017-Sep-10 11:19N 22°28' E 113°53'0 0.0
2017-Sep-10 08:07N 22°28' E 113°53'0 0.0
2017-Sep-10 07:49N 22°28' E 113°53'0 0.0
2017-Sep-10 03:46N 22°28' E 113°53'0 0.0
2017-Sep-10 03:19N 22°28' E 113°53'0 0.0
2017-Sep-10 01:16N 22°28' E 113°53'0 0.0
2017-Sep-09 23:25N 22°28' E 113°53'0 0.0
2017-Sep-09 22:52N 22°28' E 113°53'0 0.0
2017-Sep-09 22:25N 22°28' E 113°53'0 0.0
2017-Sep-09 21:58N 22°28' E 113°53'0 0.0
2017-Sep-09 20:10N 22°28' E 113°53'0 0.0
2017-Sep-09 19:19N 22°28' E 113°53'0 0.0
2017-Sep-09 18:25N 22°28' E 113°53'0 0.0
2017-Sep-09 17:43N 22°28' E 113°53'0 0.0
2017-Sep-09 16:37N 22°28' E 113°53'0 0.1
2017-Sep-09 16:30N 22°28' E 113°53'0 0.7
2017-Sep-09 15:59N 22°28' E 113°52'3 6.1
2017-Sep-09 15:28N 22°25' E 113°53'23514.5
2017-Sep-08 23:11N 23°39' E 117°56'416.7
2017-Sep-08 22:57N 23°43' E 117°58'2117.6
2017-Sep-08 21:46N 23°57' E 118°15'517.2
2017-Sep-08 21:30N 24°01' E 118°17'916.9
2017-Sep-08 21:00N 24°09' E 118°18'510.6
2017-Sep-08 20:30N 24°14' E 118°17'612.2
2017-Sep-08 20:00N 24°19' E 118°12'612.3
2017-Sep-08 19:31N 24°23' E 118°07'612.0
2017-Sep-08 19:00N 24°26' E 118°02'1 1.5
2017-Sep-08 18:30N 24°27' E 118°01'0 0.0
2017-Sep-08 17:58N 24°27' E 118°01'0 0.0
2017-Sep-08 17:28N 24°27' E 118°01'0 0.0
2017-Sep-08 16:58N 24°27' E 118°01'0 0.0
2017-Sep-08 16:28N 24°27' E 118°01'0 0.0
2017-Sep-08 15:58N 24°27' E 118°01'0 0.0
2017-Sep-08 15:28N 24°27' E 118°01'0 0.0
2017-Sep-08 14:58N 24°27' E 118°01'0 0.0
2017-Sep-08 14:28N 24°27' E 118°01'0 0.0
2017-Sep-08 13:58N 24°27' E 118°01'0 0.0
2017-Sep-08 13:28N 24°27' E 118°01'0 0.0
2017-Sep-08 12:58N 24°27' E 118°01'0 0.0
2017-Sep-08 12:28N 24°27' E 118°01'0 0.0
2017-Sep-08 11:58N 24°27' E 118°01'0 0.0
2017-Sep-08 11:28N 24°27' E 118°01'0 0.0
2017-Sep-08 10:58N 24°27' E 118°01'0 0.0
2017-Sep-08 10:28N 24°27' E 118°01'0 0.0
2017-Sep-08 09:58N 24°27' E 118°01'0 0.0
2017-Sep-08 09:28N 24°27' E 118°01'0 0.0
2017-Sep-08 08:58N 24°27' E 118°01'0 0.0
2017-Sep-08 08:28N 24°27' E 118°01'0 0.0
2017-Sep-08 07:58N 24°27' E 118°01'0 0.0
2017-Sep-08 07:28N 24°27' E 118°01'0 0.0
2017-Sep-08 06:58N 24°27' E 118°01'0 0.0
2017-Sep-08 06:28N 24°27' E 118°01'0 0.0
2017-Sep-08 05:58N 24°27' E 118°01'0 0.0
2017-Sep-08 05:25N 24°27' E 118°01'0 0.1
2017-Sep-08 04:58N 24°27' E 118°01'0 0.1
2017-Sep-08 04:25N 24°27' E 118°01'0 0.0
2017-Sep-08 03:58N 24°27' E 118°01'0 0.0
2017-Sep-08 03:28N 24°27' E 118°01'0 0.0
2017-Sep-08 02:58N 24°27' E 118°01'0 0.0
2017-Sep-08 02:28N 24°27' E 118°01'0 0.0
2017-Sep-08 01:58N 24°27' E 118°01'0 0.0
2017-Sep-08 01:28N 24°27' E 118°01'0 0.0
2017-Sep-08 00:55N 24°27' E 118°01'0 0.0
2017-Sep-08 00:28N 24°27' E 118°01'0 0.1
2017-Sep-08 00:00N 24°27' E 118°01'1 2.6
2017-Sep-07 23:30N 24°26' E 118°02'611.7
2017-Sep-07 23:01N 24°23' E 118°08'4 8.1
2017-Sep-07 22:30N 24°20' E 118°11'5 9.2
2017-Sep-07 22:00N 24°16' E 118°14'510.0
2017-Sep-07 21:31N 24°13' E 118°18'612.2
2017-Sep-07 21:00N 24°12' E 118°24'815.3
2017-Sep-07 20:30N 24°14' E 118°32'815.4
2017-Sep-07 20:00N 24°16' E 118°41'815.6
2017-Sep-07 19:29N 24°18' E 118°49'2414.9
2017-Sep-07 17:53N 24°32' E 119°10'615.8
2017-Sep-07 17:30N 24°35' E 119°16'815.7
2017-Sep-07 17:00N 24°40' E 119°23'815.7
2017-Sep-07 16:30N 24°46' E 119°29'31315.2
2017-Sep-06 19:54N 29°09' E 122°39'2716.0
2017-Sep-06 18:13N 29°34' E 122°50'715.4
2017-Sep-06 17:45N 29°40' E 122°54'415.0
2017-Sep-06 17:30N 29°44' E 122°56'815.1
2017-Sep-06 16:59N 29°50' E 122°60'3013.7
2017-Sep-06 14:49N 30°20' E 122°58'514.7
2017-Sep-06 14:28N 30°23' E 122°53'714.2
2017-Sep-06 14:00N 30°27' E 122°47'2013.4
2017-Sep-06 12:30N 30°32' E 122°24'1210.9
2017-Sep-06 11:26N 30°34' E 122°11'710.4
2017-Sep-06 10:43N 30°38' E 122°03'0 0.0
2017-Sep-05 22:57N 30°38' E 122°03'0 0.0
2017-Sep-05 22:30N 30°38' E 122°03'0 0.0
2017-Sep-05 22:00N 30°38' E 122°03'0 0.0
2017-Sep-05 21:24N 30°38' E 122°03'0 0.0
2017-Sep-05 21:00N 30°38' E 122°03'0 0.0
2017-Sep-05 20:30N 30°38' E 122°03'0 0.0
2017-Sep-05 19:57N 30°38' E 122°03'0 0.0
2017-Sep-05 19:30N 30°38' E 122°03'0 0.0
2017-Sep-05 18:48N 30°38' E 122°03'0 0.0
2017-Sep-05 18:30N 30°38' E 122°03'0 0.0
2017-Sep-05 17:33N 30°38' E 122°03'0 0.0
2017-Sep-05 15:51N 30°38' E 122°03'0 0.0
2017-Sep-05 15:30N 30°38' E 122°03'0 0.0
2017-Sep-05 14:57N 30°38' E 122°03'0 0.0
2017-Sep-05 14:27N 30°38' E 122°03'0 0.0
2017-Sep-05 13:48N 30°38' E 122°03'0 0.0
2017-Sep-05 13:30N 30°38' E 122°03'0 0.0
2017-Sep-05 13:00N 30°38' E 122°03'0 0.0
2017-Sep-05 12:18N 30°38' E 122°03'0 0.0
2017-Sep-05 11:56N 30°38' E 122°03'0 0.0
2017-Sep-05 11:30N 30°38' E 122°03'1 1.1
2017-Sep-05 11:00N 30°37' E 122°03'0 0.2
2017-Sep-05 10:30N 30°37' E 122°03'2 4.3
2017-Sep-05 10:00N 30°36' E 122°05'711.2
2017-Sep-05 09:25N 30°34' E 122°12'5 9.0
2017-Sep-05 08:52N 30°33' E 122°17'3 7.1
2017-Sep-05 08:27N 30°33' E 122°21'511.4
2017-Sep-05 08:00N 30°33' E 122°27'611.6
2017-Sep-05 07:28N 30°34' E 122°34'910.5
2017-Sep-05 06:39N 30°35' E 122°44'211.0
2017-Sep-05 06:30N 30°35' E 122°45'711.3
2017-Sep-05 05:51N 30°35' E 122°54'411.3
2017-Sep-05 05:30N 30°36' E 122°58'711.3
2017-Sep-05 04:54N 30°37' E 123°06'411.3
2017-Sep-05 04:30N 30°38' E 123°11'611.3
2017-Sep-05 04:00N 30°39' E 123°18'611.3
2017-Sep-05 03:26N 30°42' E 123°24'611.2
2017-Sep-05 02:57N 30°45' E 123°29'511.5
2017-Sep-05 02:30N 30°48' E 123°34'611.2
2017-Sep-05 02:00N 30°51' E 123°40'611.1
2017-Sep-05 01:30N 30°54' E 123°45'611.0
2017-Sep-05 00:59N 30°58' E 123°50'1411.4
2017-Sep-04 23:46N 31°07' E 124°02'1212.0
2017-Sep-04 22:46N 31°14' E 124°14'311.8
2017-Sep-04 22:29N 31°16' E 124°17'  

Dump ship's entire track history